Quick Links (Output Below):   Max & Min Temps   /   Climate Reports   /   Zone Forecasts
River Forecasts   /   Forestry Forecasts   /   Aviation Forecasts   /   Radars   /   Features

Terminal Aerodrome Forecast (Jonesboro)

Pick a Site:
Arkadelphia | El Dorado | Fayetteville | Fort Smith | Harrison | Highfill | Hot Springs | Jonesboro
Little Rock | Monticello | Mountain Home | Pine Bluff | Texarkana
 Forecast 

KJBR 292336Z 3000/3024 33011KT P6SM BKN028
     FM300600 36007KT P6SM BKN028
     FM301400 05007KT P6SM SCT030=


 Latest METARs (Observations) 
How to Decode METARs
00Z KJBR 292353Z AUTO 34007G14KT 10SM OVC034 07/01 A3033 RMK AO2
         SLP271 T00670006 10133 20067 51035
         
***** Today's Observations (Above) *****


23Z KJBR 292253Z AUTO 33008KT 10SM OVC031 07/01 A3030 RMK AO2 SLP261
         T00670011
         
22Z KJBR 292153Z AUTO 34013G22KT 10SM OVC033 07/02 A3027 RMK AO2
         SLP249 T00720017
         
21Z KJBR 292053Z AUTO 33010G26KT 10SM OVC033 09/03 A3023 RMK AO2 PK
         WND 33026/2046 SLP235 T00890028 53029
         
20Z KJBR 291953Z AUTO 34016G25KT 10SM BKN038 11/03 A3018 RMK AO2
         SLP217 T01060033
         
19Z KJBR 291853Z AUTO 33013G19KT 10SM CLR 12/04 A3015 RMK AO2 SLP209
         T01170039
         
18Z KJBR 291753Z AUTO 32010G18KT 10SM CLR 13/04 A3014 RMK AO2 SLP206
         T01280044 10144 20100 51031
         
17Z KJBR 291653Z AUTO 32014G23KT 10SM CLR 14/05 A3011 RMK AO2 SLP194
         T01390050
         
16Z KJBR 291553Z AUTO 31012G16KT 10SM CLR 14/05 A3009 RMK AO2 SLP187
         T01390050
         
15Z KJBR 291453Z AUTO 28009KT 10SM CLR 13/07 A3005 RMK AO2 SLP175
         T01280067 53026
         
***** Yesterday's Observations (Above) *****


Back to Main Page
http://www.srh.noaa.gov/lzk/qfcst.php

USA.gov is the U.S. government's official web portal to all federal, state and local government web resources and services.